createdAt,value
2023-07-10T00:01:30.357Z,18.02
2023-07-10T00:03:57.721Z,18.14
2023-07-10T00:06:25.557Z,18.11
2023-07-10T00:08:52.511Z,18.06
2023-07-10T00:11:29.711Z,17.95
2023-07-10T00:13:57.638Z,18.17
2023-07-10T00:16:26.076Z,18.11
2023-07-10T00:18:53.419Z,18.10
2023-07-10T00:21:20.696Z,18.14
2023-07-10T00:23:48.120Z,18.07
2023-07-10T00:26:26.726Z,18.09
2023-07-10T00:28:56.503Z,18.00
2023-07-10T00:31:26.461Z,18.06
2023-07-10T00:33:54.301Z,17.99
2023-07-10T00:36:30.327Z,17.93
2023-07-10T00:39:01.436Z,18.04
2023-07-10T00:41:33.730Z,18.03
2023-07-10T00:44:04.631Z,17.97
2023-07-10T00:46:43.190Z,18.22
2023-07-10T00:49:19.591Z,18.22
2023-07-10T00:51:58.232Z,18.26
2023-07-10T00:54:36.696Z,18.35
2023-07-10T00:57:06.621Z,18.42
2023-07-10T00:59:40.386Z,18.30
2023-07-10T01:02:11.254Z,18.22
2023-07-10T01:04:42.276Z,18.33
2023-07-10T01:07:11.776Z,18.12
2023-07-10T01:09:40.729Z,18.34
2023-07-10T01:12:07.984Z,18.38
2023-07-10T01:14:36.515Z,18.25
2023-07-10T01:17:05.391Z,18.31
2023-07-10T01:19:33.606Z,18.18
2023-07-10T01:22:01.065Z,18.14
2023-07-10T01:24:28.197Z,18.24
2023-07-10T01:26:57.131Z,18.38
2023-07-10T01:29:38.073Z,18.53
2023-07-10T01:32:06.764Z,18.48
2023-07-10T01:34:42.636Z,18.67
2023-07-10T01:37:11.200Z,18.71
2023-07-10T01:39:47.064Z,18.68
2023-07-10T01:42:14.323Z,18.68
2023-07-10T01:44:43.936Z,18.68
2023-07-10T01:47:12.550Z,18.78
2023-07-10T01:49:55.599Z,18.88
2023-07-10T01:52:24.412Z,18.42
2023-07-10T01:54:53.477Z,18.78
2023-07-10T01:57:25.338Z,19.02
2023-07-10T01:59:53.333Z,19.05
2023-07-10T02:02:20.828Z,19.03
2023-07-10T02:04:47.735Z,18.77
2023-07-10T02:07:14.789Z,19.11
2023-07-10T02:09:42.399Z,19.12
2023-07-10T02:12:09.872Z,19.30
2023-07-10T02:14:37.046Z,19.35
2023-07-10T02:17:04.577Z,19.28
2023-07-10T02:19:31.744Z,19.34
2023-07-10T02:21:58.913Z,19.36
2023-07-10T02:24:25.858Z,19.38
2023-07-10T02:26:52.853Z,19.29
2023-07-10T02:29:20.085Z,19.14
2023-07-10T02:31:47.053Z,18.93
2023-07-10T02:34:14.155Z,18.91
2023-07-10T02:36:41.005Z,19.00
2023-07-10T02:39:07.988Z,19.06
2023-07-10T02:41:35.212Z,19.10
2023-07-10T02:44:02.122Z,19.07
2023-07-10T02:46:29.010Z,19.01
2023-07-10T02:48:56.179Z,18.84
2023-07-10T02:51:23.287Z,18.59
2023-07-10T02:53:53.908Z,19.08
2023-07-10T02:56:21.003Z,19.06
2023-07-10T02:58:52.236Z,18.90
2023-07-10T03:01:19.268Z,18.94
2023-07-10T03:03:48.188Z,18.90
2023-07-10T03:06:15.976Z,18.86
2023-07-10T03:08:42.971Z,18.42
2023-07-10T03:11:13.011Z,18.91
2023-07-10T03:13:39.902Z,18.86
2023-07-10T03:16:12.041Z,18.86
2023-07-10T03:18:39.989Z,18.84
2023-07-10T03:21:07.585Z,18.70
2023-07-10T03:23:34.923Z,18.65
2023-07-10T03:26:03.046Z,18.67
2023-07-10T03:28:30.233Z,18.80
2023-07-10T03:31:00.617Z,18.37
2023-07-10T03:33:27.744Z,19.05
2023-07-10T03:36:02.989Z,19.19
2023-07-10T03:38:30.898Z,19.29
2023-07-10T03:40:59.097Z,19.24
2023-07-10T03:43:27.706Z,19.26
2023-07-10T03:45:55.952Z,19.35
2023-07-10T03:48:22.894Z,19.46
2023-07-10T03:50:49.874Z,19.50
2023-07-10T03:53:16.809Z,19.59
2023-07-10T03:55:54.098Z,19.40
2023-07-10T03:58:32.839Z,19.44
2023-07-10T04:01:01.705Z,19.46
2023-07-10T04:03:31.768Z,19.52
2023-07-10T04:05:59.738Z,19.34
2023-07-10T04:08:31.702Z,19.43
2023-07-10T04:11:01.401Z,19.47
2023-07-10T04:13:28.733Z,19.60
2023-07-10T04:16:05.112Z,19.74
2023-07-10T04:18:40.186Z,19.88
2023-07-10T04:21:12.961Z,19.82
2023-07-10T04:23:40.404Z,19.92
2023-07-10T04:26:13.548Z,19.87
2023-07-10T04:28:41.877Z,19.98
2023-07-10T04:31:08.857Z,19.67
2023-07-10T04:33:35.899Z,20.08
2023-07-10T04:36:03.261Z,19.73
2023-07-10T04:38:30.529Z,19.93
2023-07-10T04:41:04.247Z,19.94
2023-07-10T04:43:32.721Z,20.05
2023-07-10T04:46:03.213Z,19.94
2023-07-10T04:48:31.223Z,20.04
2023-07-10T04:51:04.823Z,20.29
2023-07-10T04:53:33.502Z,20.54
2023-07-10T04:56:03.209Z,20.77
2023-07-10T04:58:30.678Z,21.07
2023-07-10T05:01:00.432Z,21.16
2023-07-10T05:03:27.797Z,21.16
2023-07-10T05:06:00.012Z,21.23
2023-07-10T05:08:28.709Z,21.15
2023-07-10T05:10:57.951Z,21.20
2023-07-10T05:13:28.906Z,21.88
2023-07-10T05:15:58.612Z,22.69
2023-07-10T05:18:30.785Z,23.61
2023-07-10T05:20:59.918Z,24.26
2023-07-10T05:23:28.356Z,24.45
2023-07-10T05:26:12.348Z,24.40
2023-07-10T05:28:40.862Z,23.90
2023-07-10T05:31:10.168Z,23.72
2023-07-10T05:33:39.315Z,23.87
2023-07-10T05:36:11.001Z,23.34
2023-07-10T05:38:37.970Z,23.28
2023-07-10T05:41:05.911Z,22.67
2023-07-10T05:43:34.815Z,22.38
2023-07-10T05:46:02.816Z,21.92
2023-07-10T05:48:30.247Z,21.57
2023-07-10T05:50:57.814Z,21.48
2023-07-10T05:53:25.606Z,21.44
2023-07-10T05:55:54.891Z,21.35
2023-07-10T05:58:24.201Z,20.62
2023-07-10T06:00:52.758Z,20.81
2023-07-10T06:03:20.555Z,20.75
2023-07-10T06:05:55.529Z,20.84
2023-07-10T06:08:23.286Z,20.98
2023-07-10T06:10:50.850Z,20.83
2023-07-10T06:13:18.510Z,20.80
2023-07-10T06:15:48.036Z,20.81
2023-07-10T06:18:18.847Z,20.46
2023-07-10T06:20:52.592Z,19.96
2023-07-10T06:23:20.819Z,19.50
2023-07-10T06:25:48.081Z,19.64
2023-07-10T06:28:15.220Z,19.56
2023-07-10T06:30:44.458Z,19.46
2023-07-10T06:33:13.344Z,19.46
2023-07-10T06:35:40.588Z,19.80
2023-07-10T06:38:07.612Z,20.10
2023-07-10T06:40:34.479Z,19.86
2023-07-10T06:43:01.501Z,20.21
2023-07-10T06:45:28.448Z,20.27
2023-07-10T06:47:55.607Z,20.23
2023-07-10T06:50:22.668Z,20.59
2023-07-10T06:52:49.736Z,20.99
2023-07-10T06:55:18.601Z,21.55
2023-07-10T06:57:46.389Z,21.74
2023-07-10T07:00:15.600Z,21.41
2023-07-10T07:02:44.189Z,21.57
2023-07-10T07:05:13.048Z,21.38
2023-07-10T07:07:41.233Z,21.99
2023-07-10T07:10:16.333Z,22.61
2023-07-10T07:12:44.347Z,23.88
2023-07-10T07:15:12.723Z,24.30
2023-07-10T07:17:42.686Z,24.89
2023-07-10T07:20:10.015Z,25.70
2023-07-10T07:22:37.280Z,26.31
2023-07-10T07:25:04.577Z,25.92
2023-07-10T07:27:33.607Z,25.88
2023-07-10T07:30:05.542Z,26.43
2023-07-10T07:32:32.889Z,26.96
2023-07-10T07:35:00.086Z,26.11
2023-07-10T07:37:27.083Z,25.53
2023-07-10T07:39:55.801Z,24.93
2023-07-10T07:42:22.638Z,24.21
2023-07-10T07:44:49.631Z,24.18
2023-07-10T07:47:17.610Z,23.40
2023-07-10T07:49:44.703Z,23.08
2023-07-10T07:52:12.077Z,22.79
2023-07-10T07:54:40.954Z,23.52
2023-07-10T07:57:09.381Z,23.92
2023-07-10T07:59:37.216Z,23.99
2023-07-10T08:02:04.278Z,22.78
2023-07-10T08:04:31.232Z,22.69
2023-07-10T08:06:58.826Z,22.31
2023-07-10T08:09:25.805Z,21.56
2023-07-10T08:11:52.941Z,21.82
2023-07-10T08:14:20.101Z,21.81
2023-07-10T08:16:46.965Z,22.63
2023-07-10T08:19:14.075Z,25.82
2023-07-10T08:21:41.027Z,26.41
2023-07-10T08:24:07.858Z,27.41
2023-07-10T08:26:34.895Z,28.29
2023-07-10T08:29:22.807Z,32.52
2023-07-10T08:31:49.667Z,32.26
2023-07-10T08:34:16.866Z,29.92
2023-07-10T08:36:44.384Z,29.84
2023-07-10T08:39:12.080Z,30.76
2023-07-10T08:41:39.373Z,32.11
2023-07-10T08:44:09.286Z,31.60
2023-07-10T08:46:36.377Z,30.20
2023-07-10T08:49:07.640Z,32.37
2023-07-10T08:52:03.623Z,35.24
2023-07-10T08:54:31.277Z,35.44
2023-07-10T08:57:22.793Z,33.59
2023-07-10T08:59:52.601Z,33.41
2023-07-10T09:02:38.333Z,34.91
2023-07-10T09:05:12.730Z,34.21
2023-07-10T09:07:43.969Z,36.01
2023-07-10T09:10:17.371Z,38.29
2023-07-10T09:12:51.001Z,37.50
2023-07-10T09:15:28.449Z,32.95
2023-07-10T09:18:16.865Z,31.64
2023-07-10T09:20:45.126Z,38.04
2023-07-10T09:23:26.603Z,40.99
2023-07-10T09:26:06.313Z,38.32
2023-07-10T09:28:33.753Z,37.47
2023-07-10T09:31:37.321Z,36.14
2023-07-10T09:34:04.411Z,41.35
2023-07-10T09:36:31.527Z,41.97
2023-07-10T09:38:58.581Z,40.01
2023-07-10T09:41:30.622Z,40.16
2023-07-10T09:44:03.827Z,38.47
2023-07-10T09:46:33.638Z,41.59
2023-07-10T09:49:03.862Z,41.91
2023-07-10T09:51:31.406Z,41.24
2023-07-10T09:54:08.103Z,39.07
2023-07-10T09:56:39.857Z,35.28
2023-07-10T09:59:33.235Z,33.08
2023-07-10T10:02:25.874Z,31.25
2023-07-10T10:05:15.715Z,34.05
2023-07-10T10:07:49.052Z,34.27
2023-07-10T10:10:28.472Z,33.72
2023-07-10T10:13:02.637Z,32.48
2023-07-10T10:16:07.899Z,31.07
2023-07-10T10:19:00.158Z,31.29
2023-07-10T10:21:30.967Z,34.72
2023-07-10T10:24:06.908Z,36.44
2023-07-10T10:26:52.761Z,34.39
2023-07-10T10:29:46.500Z,32.67
2023-07-10T10:32:45.750Z,32.27
2023-07-10T10:35:25.515Z,33.18
2023-07-10T10:38:14.434Z,38.07
2023-07-10T10:41:20.552Z,39.60
2023-07-10T10:44:46.462Z,40.55
2023-07-10T10:47:59.570Z,41.41
2023-07-10T10:50:45.120Z,39.54
2023-07-10T10:53:37.984Z,37.70
2023-07-10T10:56:28.309Z,41.09
2023-07-10T10:59:11.022Z,40.69
2023-07-10T11:01:53.228Z,43.47
2023-07-10T11:04:44.782Z,47.23
2023-07-10T11:07:14.500Z,48.63
2023-07-10T11:09:51.214Z,47.18
2023-07-10T11:12:23.266Z,48.06
2023-07-10T11:14:56.332Z,50.73
2023-07-10T11:17:23.869Z,45.96
2023-07-10T11:19:51.807Z,47.47
2023-07-10T11:22:29.549Z,48.46
2023-07-10T11:24:57.706Z,47.12
2023-07-10T11:27:43.122Z,48.53
2023-07-10T11:30:14.782Z,44.40
2023-07-10T11:33:16.240Z,43.05
2023-07-10T11:36:12.287Z,36.62
2023-07-10T11:38:57.000Z,42.90
2023-07-10T11:41:30.688Z,39.89
2023-07-10T11:44:16.090Z,37.23
2023-07-10T11:47:00.709Z,35.67
2023-07-10T11:49:36.588Z,37.13
2023-07-10T11:52:09.418Z,39.04
2023-07-10T11:54:40.628Z,38.73
2023-07-10T11:57:10.734Z,37.05
2023-07-10T11:59:45.718Z,37.84
2023-07-10T12:02:46.736Z,35.14
2023-07-10T12:05:39.395Z,34.52
2023-07-10T12:08:09.245Z,34.33
2023-07-10T12:10:46.969Z,32.11
2023-07-10T12:13:31.767Z,31.39
2023-07-10T12:16:11.917Z,31.35
2023-07-10T12:18:41.127Z,30.61
2023-07-10T12:21:21.217Z,30.42
2023-07-10T12:24:01.595Z,29.81
2023-07-10T12:29:00.273Z,28.97
2023-07-10T12:31:27.492Z,28.62
2023-07-10T12:33:56.792Z,28.66
2023-07-10T12:36:26.421Z,28.85
2023-07-10T12:38:55.874Z,28.94
2023-07-10T12:41:23.810Z,28.54
2023-07-10T12:43:57.627Z,28.35
2023-07-10T12:46:26.898Z,28.61
2023-07-10T12:48:58.550Z,28.67
2023-07-10T12:51:35.254Z,28.25
2023-07-10T12:54:03.653Z,28.81
2023-07-10T12:56:39.977Z,28.85
2023-07-10T12:59:18.605Z,28.50
2023-07-10T13:02:15.262Z,28.29
2023-07-10T13:04:47.768Z,28.42
2023-07-10T13:07:30.280Z,28.55
2023-07-10T13:10:01.664Z,27.96
2023-07-10T13:12:30.500Z,28.19
2023-07-10T13:14:59.812Z,28.27
2023-07-10T13:17:29.149Z,28.10
2023-07-10T13:20:08.652Z,27.85
2023-07-10T13:22:37.921Z,27.84
2023-07-10T13:25:07.131Z,27.96
2023-07-10T13:27:34.313Z,27.73
2023-07-10T13:30:01.286Z,27.56
2023-07-10T13:32:28.776Z,27.71
2023-07-10T13:34:56.008Z,27.71
2023-07-10T13:37:24.711Z,27.66
2023-07-10T13:39:54.414Z,27.47
2023-07-10T13:42:22.116Z,27.55
2023-07-10T13:44:49.751Z,27.26
2023-07-10T13:47:19.042Z,27.27
2023-07-10T13:49:46.446Z,27.61
2023-07-10T13:52:23.380Z,27.77
2023-07-10T13:54:51.579Z,27.99
2023-07-10T13:57:27.600Z,27.78
2023-07-10T13:59:59.639Z,27.65
2023-07-10T14:02:37.719Z,27.87
2023-07-10T14:05:08.298Z,27.37
2023-07-10T14:07:36.235Z,27.60
2023-07-10T14:10:06.023Z,27.97
2023-07-10T14:12:35.729Z,28.29
2023-07-10T14:15:04.102Z,28.03
2023-07-10T14:17:33.788Z,28.28
2023-07-10T14:20:02.465Z,28.00
2023-07-10T14:22:29.859Z,28.40
2023-07-10T14:24:56.809Z,28.24
2023-07-10T14:27:26.936Z,28.29
2023-07-10T14:29:55.591Z,28.41
2023-07-10T14:32:25.618Z,27.85
2023-07-10T14:34:52.486Z,27.95
2023-07-10T14:37:22.608Z,28.13
2023-07-10T14:39:50.897Z,28.43
2023-07-10T14:42:26.377Z,28.51
2023-07-10T14:44:53.333Z,28.83
2023-07-10T14:47:20.514Z,28.73
2023-07-10T14:49:47.876Z,28.07
2023-07-10T14:52:29.759Z,27.98
2023-07-10T14:54:59.158Z,28.42
2023-07-10T14:57:34.709Z,28.31
2023-07-10T15:00:05.378Z,28.32
2023-07-10T15:02:34.276Z,28.65
2023-07-10T15:05:01.525Z,28.46
2023-07-10T15:07:29.660Z,28.13
2023-07-10T15:09:58.381Z,28.04
2023-07-10T15:12:25.468Z,27.98
2023-07-10T15:14:52.804Z,27.96
2023-07-10T15:17:30.560Z,28.44
2023-07-10T15:19:57.667Z,28.96
2023-07-10T15:22:24.762Z,29.01
2023-07-10T15:24:51.652Z,28.85
2023-07-10T15:27:18.433Z,28.55
2023-07-10T15:29:45.443Z,28.29
2023-07-10T15:32:21.699Z,28.01
2023-07-10T15:34:52.289Z,27.98
2023-07-10T15:37:22.648Z,28.18
2023-07-10T15:39:50.270Z,28.13
2023-07-10T15:42:19.400Z,27.64
2023-07-10T15:44:47.775Z,27.55
2023-07-10T15:47:19.016Z,27.39
2023-07-10T15:49:46.005Z,27.16
2023-07-10T15:52:23.178Z,27.10
2023-07-10T15:54:51.141Z,27.43
2023-07-10T15:57:18.718Z,27.45
2023-07-10T15:59:45.746Z,27.35
2023-07-10T16:02:28.685Z,27.21
2023-07-10T16:04:56.357Z,27.10
2023-07-10T16:07:23.697Z,26.99
2023-07-10T16:09:50.846Z,27.44
2023-07-10T16:12:18.289Z,27.36
2023-07-10T16:14:45.797Z,27.10
2023-07-10T16:17:15.045Z,26.76
2023-07-10T16:19:42.704Z,26.79
2023-07-10T16:22:19.294Z,26.88
2023-07-10T16:24:48.465Z,26.75
2023-07-10T16:27:15.662Z,26.66
2023-07-10T16:29:43.210Z,26.70
2023-07-10T16:32:17.615Z,26.72
2023-07-10T16:34:44.952Z,26.60
2023-07-10T16:37:15.220Z,26.36
2023-07-10T16:39:42.874Z,26.21
2023-07-10T16:42:15.167Z,26.21
2023-07-10T16:44:45.487Z,26.01
2023-07-10T16:47:19.505Z,26.02
2023-07-10T16:49:47.902Z,25.95
2023-07-10T16:52:15.691Z,25.73
2023-07-10T16:54:42.576Z,25.58
2023-07-10T16:57:18.368Z,25.27
2023-07-10T16:59:46.200Z,25.04
2023-07-10T17:02:23.845Z,25.21
2023-07-10T17:04:52.412Z,25.43
2023-07-10T17:07:21.841Z,25.37
2023-07-10T17:09:48.882Z,25.32
2023-07-10T17:12:20.555Z,25.16
2023-07-10T17:14:48.131Z,24.96
2023-07-10T17:17:25.131Z,25.10
2023-07-10T17:19:52.965Z,24.92
2023-07-10T17:22:28.808Z,24.71
2023-07-10T17:24:57.373Z,24.55
2023-07-10T17:27:29.342Z,24.01
2023-07-10T17:29:56.928Z,24.21
2023-07-10T17:32:26.584Z,24.00
2023-07-10T17:34:55.261Z,24.27
2023-07-10T17:37:25.011Z,24.36
2023-07-10T17:39:52.163Z,24.51
2023-07-10T17:42:26.098Z,24.50
2023-07-10T17:44:53.005Z,24.34
2023-07-10T17:47:20.719Z,24.34
2023-07-10T17:49:47.812Z,24.19
2023-07-10T17:52:17.622Z,24.18
2023-07-10T17:54:45.648Z,24.02
2023-07-10T17:57:17.888Z,23.87
2023-07-10T17:59:47.101Z,23.70
2023-07-10T18:02:28.706Z,23.79
2023-07-10T18:04:55.706Z,23.57
2023-07-10T18:07:23.954Z,23.61
2023-07-10T18:09:51.156Z,23.52
2023-07-10T18:12:20.581Z,23.61
2023-07-10T18:14:48.711Z,23.56
2023-07-10T18:17:20.869Z,23.11
2023-07-10T18:19:48.893Z,23.23
2023-07-10T18:22:17.479Z,23.13
2023-07-10T18:24:45.350Z,22.98
2023-07-10T18:27:17.760Z,22.77
2023-07-10T18:29:45.950Z,22.61
2023-07-10T18:32:18.465Z,22.49
2023-07-10T18:34:47.851Z,22.47
2023-07-10T18:37:17.747Z,22.25
2023-07-10T18:39:45.528Z,21.97
2023-07-10T18:42:30.297Z,21.93
2023-07-10T18:44:58.040Z,21.82
2023-07-10T18:47:25.067Z,21.76
2023-07-10T18:49:52.477Z,21.58
2023-07-10T18:52:27.301Z,21.49
2023-07-10T18:54:54.736Z,21.37
2023-07-10T18:57:21.873Z,21.32
2023-07-10T18:59:48.894Z,21.18
2023-07-10T19:02:15.796Z,21.13
2023-07-10T19:04:42.800Z,20.90
2023-07-10T19:07:14.690Z,20.98
2023-07-10T19:09:44.744Z,20.73
2023-07-10T19:12:16.789Z,20.59
2023-07-10T19:14:45.003Z,20.40
2023-07-10T19:17:20.820Z,20.39
2023-07-10T19:19:52.151Z,20.11
2023-07-10T19:22:20.273Z,19.92
2023-07-10T19:24:47.805Z,19.95
2023-07-10T19:27:15.185Z,19.84
2023-07-10T19:29:42.185Z,19.63
2023-07-10T19:32:19.326Z,19.25
2023-07-10T19:34:46.612Z,19.45
2023-07-10T19:37:14.097Z,19.32
2023-07-10T19:39:41.745Z,18.94
2023-07-10T19:42:09.198Z,19.05
2023-07-10T19:44:58.853Z,18.88
2023-07-10T19:47:28.211Z,18.80
2023-07-10T19:49:55.936Z,18.78
2023-07-10T19:52:23.156Z,18.55
2023-07-10T19:54:52.942Z,18.37
2023-07-10T19:57:32.672Z,18.13
2023-07-10T20:00:01.039Z,17.99
2023-07-10T20:02:28.070Z,17.84
2023-07-10T20:04:57.010Z,17.70
2023-07-10T20:07:25.754Z,17.68
2023-07-10T20:09:53.862Z,17.66
2023-07-10T20:12:25.406Z,17.60
2023-07-10T20:14:53.062Z,17.52
2023-07-10T20:17:31.586Z,17.42
2023-07-10T20:19:59.772Z,17.32
2023-07-10T20:22:27.811Z,17.21
2023-07-10T20:24:55.659Z,17.06
2023-07-10T20:27:22.574Z,16.89
2023-07-10T20:29:49.885Z,16.90
2023-07-10T20:32:16.875Z,16.35
2023-07-10T20:34:48.706Z,16.87
2023-07-10T20:37:18.817Z,16.81
2023-07-10T20:39:45.772Z,16.26
2023-07-10T20:42:18.397Z,16.69
2023-07-10T20:44:47.806Z,16.60
2023-07-10T20:50:14.069Z,16.54
2023-07-10T20:52:44.979Z,16.20
2023-07-10T20:55:15.804Z,16.39
2023-07-10T20:57:42.869Z,16.08
2023-07-10T21:00:17.523Z,16.24
2023-07-10T21:02:44.779Z,16.19
2023-07-10T21:05:11.759Z,16.13
2023-07-10T21:07:38.998Z,15.90
2023-07-10T21:10:07.621Z,15.90
2023-07-10T21:12:35.008Z,15.90
2023-07-10T21:15:02.048Z,15.85
2023-07-10T21:17:33.312Z,15.74
2023-07-10T21:20:01.959Z,15.53
2023-07-10T21:22:29.380Z,15.67
2023-07-10T21:24:56.428Z,15.59
2023-07-10T21:27:26.586Z,15.55
2023-07-10T21:29:55.628Z,15.47
2023-07-10T21:32:25.334Z,15.69
2023-07-10T21:34:53.977Z,15.61
2023-07-10T21:37:21.312Z,15.54
2023-07-10T21:39:48.475Z,15.49
2023-07-10T21:42:21.930Z,15.49
2023-07-10T21:44:49.000Z,15.35
2023-07-10T21:47:16.304Z,15.47
2023-07-10T21:49:43.449Z,15.35
2023-07-10T21:52:10.897Z,15.59
2023-07-10T21:54:37.818Z,15.62
2023-07-10T21:57:05.456Z,15.54
2023-07-10T21:59:37.598Z,15.67
2023-07-10T22:02:04.650Z,15.69
2023-07-10T22:04:33.488Z,15.71
2023-07-10T22:07:00.386Z,15.60
2023-07-10T22:09:27.403Z,15.65
2023-07-10T22:11:54.509Z,15.73
2023-07-10T22:14:21.623Z,15.63
2023-07-10T22:16:51.703Z,15.47
2023-07-10T22:19:26.609Z,15.50
2023-07-10T22:21:53.404Z,15.50
2023-07-10T22:24:20.456Z,15.35
2023-07-10T22:26:48.146Z,15.14
2023-07-10T22:29:15.462Z,15.29
2023-07-10T22:31:45.365Z,15.26
2023-07-10T22:34:13.321Z,15.18
2023-07-10T22:36:41.383Z,15.12
2023-07-10T22:39:08.312Z,14.99
2023-07-10T22:41:36.424Z,15.14
2023-07-10T22:44:07.669Z,14.91
2023-07-10T22:46:39.570Z,15.04
2023-07-10T22:49:08.739Z,15.05
2023-07-10T22:51:36.750Z,14.96
2023-07-10T22:54:07.915Z,15.03
2023-07-10T22:56:42.590Z,14.95
2023-07-10T22:59:19.682Z,15.09
2023-07-10T23:01:49.091Z,14.99
2023-07-10T23:04:18.315Z,14.62
2023-07-10T23:06:45.600Z,15.10
2023-07-10T23:09:13.092Z,14.63
2023-07-10T23:11:40.248Z,14.97
2023-07-10T23:14:08.828Z,15.10
2023-07-10T23:16:36.112Z,14.72
2023-07-10T23:19:03.467Z,14.76
2023-07-10T23:21:30.682Z,14.73
2023-07-10T23:23:58.064Z,14.76
2023-07-10T23:26:26.765Z,14.59
2023-07-10T23:28:54.418Z,14.50
2023-07-10T23:31:27.337Z,14.45
2023-07-10T23:33:54.949Z,14.55
2023-07-10T23:36:27.790Z,14.66
2023-07-10T23:38:56.457Z,14.47
2023-07-10T23:41:23.403Z,14.07
2023-07-10T23:43:50.676Z,14.60
2023-07-10T23:46:17.818Z,14.63
2023-07-10T23:48:44.717Z,14.74
2023-07-10T23:51:12.124Z,14.80
2023-07-10T23:53:39.284Z,14.82
2023-07-10T23:56:07.957Z,14.76
2023-07-10T23:58:35.663Z,14.63
